sensor_id;sensor_type;location;lat;lon;timestamp;pressure;altitude;pressure_sealevel;temperature;humidity
71565;BME280;59397;50.952;14.502;2024-01-06T00:05:42;960.23;;;2.11;100.00
71565;BME280;59397;50.952;14.502;2024-01-06T00:25:14;960.23;;;1.07;100.00
71565;BME280;59397;50.952;14.502;2024-01-06T00:44:47;960.33;;;0.85;100.00
71565;BME280;59397;50.952;14.502;2024-01-06T01:04:20;960.52;;;0.94;100.00
71565;BME280;59397;50.952;14.502;2024-01-06T01:23:52;960.61;;;0.27;100.00
71565;BME280;59397;50.952;14.502;2024-01-06T01:43:26;960.49;;;0.67;100.00
71565;BME280;59397;50.952;14.502;2024-01-06T02:02:57;960.42;;;-0.09;100.00
71565;BME280;59397;50.952;14.502;2024-01-06T02:22:30;960.40;;;0.57;100.00
71565;BME280;59397;50.952;14.502;2024-01-06T02:42:04;960.35;;;0.34;100.00
71565;BME280;59397;50.952;14.502;2024-01-06T03:01:37;960.37;;;0.22;100.00
71565;BME280;59397;50.952;14.502;2024-01-06T03:40:47;960.51;;;0.89;100.00
71565;BME280;59397;50.952;14.502;2024-01-06T04:00:20;960.57;;;1.12;100.00
71565;BME280;59397;50.952;14.502;2024-01-06T04:19:54;960.73;;;1.18;100.00
71565;BME280;59397;50.952;14.502;2024-01-06T04:39:27;960.66;;;1.01;100.00
71565;BME280;59397;50.952;14.502;2024-01-06T04:59:00;960.78;;;0.76;100.00
71565;BME280;59397;50.952;14.502;2024-01-06T05:18:31;960.74;;;-0.09;100.00
71565;BME280;59397;50.952;14.502;2024-01-06T05:38:04;961.00;;;0.04;100.00
71565;BME280;59397;50.952;14.502;2024-01-06T05:57:39;961.25;;;0.41;100.00
71565;BME280;59397;50.952;14.502;2024-01-06T06:17:13;961.35;;;0.32;100.00
71565;BME280;59397;50.952;14.502;2024-01-06T06:36:47;961.66;;;0.81;100.00
71565;BME280;59397;50.952;14.502;2024-01-06T06:56:22;961.86;;;1.16;100.00
71565;BME280;59397;50.952;14.502;2024-01-06T07:15:55;962.06;;;1.35;100.00
71565;BME280;59397;50.952;14.502;2024-01-06T07:35:28;962.02;;;1.49;100.00
71565;BME280;59397;50.952;14.502;2024-01-06T07:55:04;962.40;;;2.09;100.00
71565;BME280;59397;50.952;14.502;2024-01-06T08:14:38;962.62;;;2.27;100.00
71565;BME280;59397;50.952;14.502;2024-01-06T08:34:13;962.91;;;2.24;100.00
71565;BME280;59397;50.952;14.502;2024-01-06T08:53:49;963.00;;;2.13;100.00
71565;BME280;59397;50.952;14.502;2024-01-06T09:13:24;963.10;;;3.05;100.00
71565;BME280;59397;50.952;14.502;2024-01-06T09:33:01;963.09;;;3.75;100.00
71565;BME280;59397;50.952;14.502;2024-01-06T09:52:37;963.20;;;3.81;100.00
71565;BME280;59397;50.952;14.502;2024-01-06T10:12:11;963.20;;;4.64;100.00
71565;BME280;59397;50.952;14.502;2024-01-06T10:31:46;963.32;;;4.30;100.00
71565;BME280;59397;50.952;14.502;2024-01-06T10:51:19;963.21;;;4.23;100.00
71565;BME280;59397;50.952;14.502;2024-01-06T11:10:50;963.25;;;3.57;100.00
71565;BME280;59397;50.952;14.502;2024-01-06T11:30:24;963.24;;;3.40;100.00
71565;BME280;59397;50.952;14.502;2024-01-06T11:50:00;963.21;;;3.03;100.00
71565;BME280;59397;50.952;14.502;2024-01-06T12:09:33;963.29;;;2.97;100.00
71565;BME280;59397;50.952;14.502;2024-01-06T12:29:04;963.52;;;3.28;100.00
71565;BME280;59397;50.952;14.502;2024-01-06T12:48:36;963.59;;;2.76;100.00
71565;BME280;59397;50.952;14.502;2024-01-06T13:08:08;963.82;;;2.08;100.00
71565;BME280;59397;50.952;14.502;2024-01-06T13:27:40;964.00;;;1.60;100.00
71565;BME280;59397;50.952;14.502;2024-01-06T13:47:14;964.23;;;1.29;100.00
71565;BME280;59397;50.952;14.502;2024-01-06T14:06:45;964.21;;;0.85;100.00
71565;BME280;59397;50.952;14.502;2024-01-06T14:26:18;964.50;;;0.69;100.00
71565;BME280;59397;50.952;14.502;2024-01-06T14:45:50;964.75;;;0.05;100.00
71565;BME280;59397;50.952;14.502;2024-01-06T15:05:24;965.03;;;0.22;100.00
71565;BME280;59397;50.952;14.502;2024-01-06T15:24:57;965.27;;;-0.11;100.00
71565;BME280;59397;50.952;14.502;2024-01-06T15:44:30;965.27;;;-0.30;100.00
71565;BME280;59397;50.952;14.502;2024-01-06T16:04:02;965.46;;;-0.35;100.00
71565;BME280;59397;50.952;14.502;2024-01-06T16:23:35;965.51;;;-0.63;100.00
71565;BME280;59397;50.952;14.502;2024-01-06T16:43:08;965.54;;;-0.70;100.00
71565;BME280;59397;50.952;14.502;2024-01-06T17:02:42;965.59;;;-0.72;100.00
71565;BME280;59397;50.952;14.502;2024-01-06T17:22:14;965.80;;;-0.89;100.00
71565;BME280;59397;50.952;14.502;2024-01-06T17:41:48;966.08;;;-1.18;100.00
71565;BME280;59397;50.952;14.502;2024-01-06T18:01:20;966.24;;;-1.22;100.00
71565;BME280;59397;50.952;14.502;2024-01-06T18:20:53;966.43;;;-1.37;100.00
71565;BME280;59397;50.952;14.502;2024-01-06T18:40:27;966.52;;;-1.14;100.00
71565;BME280;59397;50.952;14.502;2024-01-06T18:59:56;966.63;;;-1.89;100.00
71565;BME280;59397;50.952;14.502;2024-01-06T19:19:29;966.69;;;-2.00;100.00
71565;BME280;59397;50.952;14.502;2024-01-06T19:38:58;966.74;;;-1.84;100.00
71565;BME280;59397;50.952;14.502;2024-01-06T19:58:32;967.07;;;-2.13;100.00
71565;BME280;59397;50.952;14.502;2024-01-06T20:17:59;967.23;;;-2.03;100.00
71565;BME280;59397;50.952;14.502;2024-01-06T20:37:31;967.15;;;-2.11;100.00
71565;BME280;59397;50.952;14.502;2024-01-06T20:57:04;967.06;;;-2.13;100.00
71565;BME280;59397;50.952;14.502;2024-01-06T21:16:29;967.02;;;-2.74;100.00
71565;BME280;59397;50.952;14.502;2024-01-06T21:36:04;967.16;;;-2.69;100.00
71565;BME280;59397;50.952;14.502;2024-01-06T21:55:37;967.33;;;-2.89;100.00
71565;BME280;59397;50.952;14.502;2024-01-06T22:15:11;967.47;;;-2.62;100.00
71565;BME280;59397;50.952;14.502;2024-01-06T22:34:45;967.47;;;-2.87;100.00
71565;BME280;59397;50.952;14.502;2024-01-06T22:54:18;967.58;;;-3.20;100.00
71565;BME280;59397;50.952;14.502;2024-01-06T23:13:52;967.74;;;-3.15;100.00
71565;BME280;59397;50.952;14.502;2024-01-06T23:33:25;967.94;;;-3.27;100.00
71565;BME280;59397;50.952;14.502;2024-01-06T23:52:58;967.95;;;-3.52;100.00
